sensor_id;sensor_type;location;lat;lon;timestamp;P1;durP1;ratioP1;P2;durP2;ratioP2
85095;SDS011;75436;53.502;10.030;2024-02-26T00:01:38;12.45;;;7.10;;
85095;SDS011;75436;53.502;10.030;2024-02-26T00:04:03;13.40;;;6.55;;
85095;SDS011;75436;53.502;10.030;2024-02-26T00:06:29;10.15;;;6.07;;
85095;SDS011;75436;53.502;10.030;2024-02-26T00:08:55;22.40;;;6.20;;
85095;SDS011;75436;53.502;10.030;2024-02-26T00:11:20;10.07;;;5.43;;
85095;SDS011;75436;53.502;10.030;2024-02-26T00:13:46;10.88;;;5.88;;
85095;SDS011;75436;53.502;10.030;2024-02-26T00:16:11;11.27;;;6.05;;
85095;SDS011;75436;53.502;10.030;2024-02-26T00:18:36;9.05;;;5.30;;
85095;SDS011;75436;53.502;10.030;2024-02-26T00:21:02;9.25;;;5.85;;
85095;SDS011;75436;53.502;10.030;2024-02-26T00:23:28;11.00;;;6.45;;
85095;SDS011;75436;53.502;10.030;2024-02-26T00:25:53;13.20;;;6.38;;
85095;SDS011;75436;53.502;10.030;2024-02-26T00:28:20;10.85;;;6.13;;
85095;SDS011;75436;53.502;10.030;2024-02-26T00:30:46;11.82;;;6.35;;
85095;SDS011;75436;53.502;10.030;2024-02-26T00:33:11;11.15;;;5.95;;
85095;SDS011;75436;53.502;10.030;2024-02-26T00:35:37;12.45;;;6.85;;
85095;SDS011;75436;53.502;10.030;2024-02-26T00:38:03;12.48;;;6.45;;
85095;SDS011;75436;53.502;10.030;2024-02-26T00:40:29;10.95;;;6.22;;
85095;SDS011;75436;53.502;10.030;2024-02-26T00:42:54;12.13;;;7.03;;
85095;SDS011;75436;53.502;10.030;2024-02-26T00:45:20;12.13;;;7.43;;
85095;SDS011;75436;53.502;10.030;2024-02-26T00:47:45;11.70;;;7.18;;
85095;SDS011;75436;53.502;10.030;2024-02-26T00:50:12;15.38;;;7.88;;
85095;SDS011;75436;53.502;10.030;2024-02-26T00:52:40;13.88;;;6.97;;
85095;SDS011;75436;53.502;10.030;2024-02-26T00:55:06;14.38;;;7.88;;
85095;SDS011;75436;53.502;10.030;2024-02-26T00:57:32;13.68;;;7.10;;
85095;SDS011;75436;53.502;10.030;2024-02-26T00:59:58;12.57;;;6.40;;
85095;SDS011;75436;53.502;10.030;2024-02-26T01:02:24;12.45;;;6.35;;
85095;SDS011;75436;53.502;10.030;2024-02-26T01:04:50;14.57;;;7.07;;
85095;SDS011;75436;53.502;10.030;2024-02-26T01:07:15;14.60;;;7.38;;
85095;SDS011;75436;53.502;10.030;2024-02-26T01:09:40;14.43;;;7.60;;
85095;SDS011;75436;53.502;10.030;2024-02-26T01:12:07;11.80;;;7.10;;
85095;SDS011;75436;53.502;10.030;2024-02-26T01:14:33;12.93;;;7.20;;
85095;SDS011;75436;53.502;10.030;2024-02-26T01:16:58;12.82;;;6.95;;
85095;SDS011;75436;53.502;10.030;2024-02-26T01:19:24;13.30;;;7.47;;
85095;SDS011;75436;53.502;10.030;2024-02-26T01:21:49;13.05;;;7.07;;
85095;SDS011;75436;53.502;10.030;2024-02-26T01:24:14;11.60;;;7.13;;
85095;SDS011;75436;53.502;10.030;2024-02-26T01:26:40;12.88;;;7.78;;
85095;SDS011;75436;53.502;10.030;2024-02-26T01:29:06;13.68;;;7.28;;
85095;SDS011;75436;53.502;10.030;2024-02-26T01:31:31;14.73;;;7.22;;
85095;SDS011;75436;53.502;10.030;2024-02-26T01:33:56;15.20;;;7.22;;
85095;SDS011;75436;53.502;10.030;2024-02-26T01:36:22;16.27;;;7.85;;
85095;SDS011;75436;53.502;10.030;2024-02-26T01:38:47;14.98;;;8.20;;
85095;SDS011;75436;53.502;10.030;2024-02-26T01:41:13;22.88;;;9.40;;
85095;SDS011;75436;53.502;10.030;2024-02-26T01:43:39;19.13;;;8.63;;
85095;SDS011;75436;53.502;10.030;2024-02-26T01:46:04;14.95;;;8.65;;
85095;SDS011;75436;53.502;10.030;2024-02-26T01:48:31;25.27;;;8.57;;
85095;SDS011;75436;53.502;10.030;2024-02-26T01:50:56;34.45;;;9.60;;
85095;SDS011;75436;53.502;10.030;2024-02-26T01:53:22;25.65;;;9.65;;
85095;SDS011;75436;53.502;10.030;2024-02-26T01:55:48;18.15;;;9.43;;
85095;SDS011;75436;53.502;10.030;2024-02-26T01:58:14;20.58;;;9.32;;
85095;SDS011;75436;53.502;10.030;2024-02-26T02:00:40;17.55;;;8.30;;
85095;SDS011;75436;53.502;10.030;2024-02-26T02:03:05;19.85;;;9.13;;
85095;SDS011;75436;53.502;10.030;2024-02-26T02:05:31;16.45;;;8.95;;
85095;SDS011;75436;53.502;10.030;2024-02-26T02:07:57;18.95;;;9.32;;
85095;SDS011;75436;53.502;10.030;2024-02-26T02:10:24;19.45;;;9.90;;
85095;SDS011;75436;53.502;10.030;2024-02-26T02:12:51;16.83;;;8.85;;
85095;SDS011;75436;53.502;10.030;2024-02-26T02:15:17;16.23;;;9.18;;
85095;SDS011;75436;53.502;10.030;2024-02-26T02:17:43;18.27;;;8.93;;
85095;SDS011;75436;53.502;10.030;2024-02-26T02:20:09;17.83;;;8.70;;
85095;SDS011;75436;53.502;10.030;2024-02-26T02:22:41;16.90;;;8.45;;
85095;SDS011;75436;53.502;10.030;2024-02-26T02:25:07;15.60;;;8.50;;
85095;SDS011;75436;53.502;10.030;2024-02-26T02:27:32;15.75;;;8.10;;
85095;SDS011;75436;53.502;10.030;2024-02-26T02:29:58;15.10;;;8.90;;
85095;SDS011;75436;53.502;10.030;2024-02-26T02:32:24;15.30;;;8.77;;
85095;SDS011;75436;53.502;10.030;2024-02-26T02:34:50;15.23;;;8.80;;
85095;SDS011;75436;53.502;10.030;2024-02-26T02:37:16;17.67;;;8.95;;
85095;SDS011;75436;53.502;10.030;2024-02-26T02:39:41;14.02;;;7.55;;
85095;SDS011;75436;53.502;10.030;2024-02-26T02:42:11;14.85;;;7.90;;
85095;SDS011;75436;53.502;10.030;2024-02-26T02:44:37;15.27;;;7.72;;
85095;SDS011;75436;53.502;10.030;2024-02-26T02:47:02;17.67;;;8.60;;
85095;SDS011;75436;53.502;10.030;2024-02-26T02:49:28;15.23;;;7.82;;
85095;SDS011;75436;53.502;10.030;2024-02-26T02:51:53;15.65;;;8.18;;
85095;SDS011;75436;53.502;10.030;2024-02-26T02:54:19;18.00;;;8.10;;
85095;SDS011;75436;53.502;10.030;2024-02-26T02:56:45;14.90;;;8.38;;
85095;SDS011;75436;53.502;10.030;2024-02-26T02:59:10;16.92;;;8.32;;
85095;SDS011;75436;53.502;10.030;2024-02-26T03:01:36;15.82;;;8.30;;
85095;SDS011;75436;53.502;10.030;2024-02-26T03:04:01;14.52;;;8.35;;
85095;SDS011;75436;53.502;10.030;2024-02-26T03:06:26;18.45;;;8.75;;
85095;SDS011;75436;53.502;10.030;2024-02-26T03:08:53;17.60;;;9.05;;
85095;SDS011;75436;53.502;10.030;2024-02-26T03:11:19;17.58;;;8.23;;
85095;SDS011;75436;53.502;10.030;2024-02-26T03:13:45;17.55;;;8.52;;
85095;SDS011;75436;53.502;10.030;2024-02-26T03:16:10;16.83;;;8.88;;
85095;SDS011;75436;53.502;10.030;2024-02-26T03:18:38;17.48;;;8.80;;
85095;SDS011;75436;53.502;10.030;2024-02-26T03:21:05;14.43;;;8.05;;
85095;SDS011;75436;53.502;10.030;2024-02-26T03:23:30;21.85;;;8.98;;
85095;SDS011;75436;53.502;10.030;2024-02-26T03:25:57;13.85;;;7.55;;
85095;SDS011;75436;53.502;10.030;2024-02-26T03:28:23;14.82;;;8.52;;
85095;SDS011;75436;53.502;10.030;2024-02-26T03:30:48;20.25;;;8.10;;
85095;SDS011;75436;53.502;10.030;2024-02-26T03:33:14;16.20;;;7.78;;
85095;SDS011;75436;53.502;10.030;2024-02-26T03:35:39;16.23;;;7.72;;
85095;SDS011;75436;53.502;10.030;2024-02-26T03:38:05;15.48;;;7.95;;
85095;SDS011;75436;53.502;10.030;2024-02-26T03:40:30;17.98;;;8.35;;
85095;SDS011;75436;53.502;10.030;2024-02-26T03:42:55;15.63;;;7.85;;
85095;SDS011;75436;53.502;10.030;2024-02-26T03:45:22;14.80;;;8.02;;
85095;SDS011;75436;53.502;10.030;2024-02-26T03:47:47;22.63;;;9.13;;
85095;SDS011;75436;53.502;10.030;2024-02-26T03:50:13;17.25;;;9.05;;
85095;SDS011;75436;53.502;10.030;2024-02-26T03:52:38;17.13;;;8.77;;
85095;SDS011;75436;53.502;10.030;2024-02-26T03:55:04;15.57;;;7.63;;
85095;SDS011;75436;53.502;10.030;2024-02-26T03:57:29;15.90;;;8.13;;
85095;SDS011;75436;53.502;10.030;2024-02-26T03:59:55;17.58;;;8.00;;
85095;SDS011;75436;53.502;10.030;2024-02-26T04:02:22;15.57;;;8.02;;
85095;SDS011;75436;53.502;10.030;2024-02-26T04:04:48;17.77;;;8.25;;
85095;SDS011;75436;53.502;10.030;2024-02-26T04:07:14;15.20;;;7.57;;
85095;SDS011;75436;53.502;10.030;2024-02-26T04:09:39;21.42;;;8.65;;
85095;SDS011;75436;53.502;10.030;2024-02-26T04:12:05;16.83;;;7.80;;
85095;SDS011;75436;53.502;10.030;2024-02-26T04:14:30;14.45;;;7.97;;
85095;SDS011;75436;53.502;10.030;2024-02-26T04:16:56;16.25;;;7.97;;
85095;SDS011;75436;53.502;10.030;2024-02-26T04:19:21;16.85;;;9.02;;
85095;SDS011;75436;53.502;10.030;2024-02-26T04:21:47;15.90;;;8.35;;
85095;SDS011;75436;53.502;10.030;2024-02-26T04:24:12;16.05;;;8.07;;
85095;SDS011;75436;53.502;10.030;2024-02-26T04:26:38;18.40;;;8.18;;
85095;SDS011;75436;53.502;10.030;2024-02-26T04:29:03;17.85;;;8.75;;
85095;SDS011;75436;53.502;10.030;2024-02-26T04:31:28;18.15;;;8.63;;
85095;SDS011;75436;53.502;10.030;2024-02-26T04:33:55;17.23;;;9.13;;
85095;SDS011;75436;53.502;10.030;2024-02-26T04:36:20;18.55;;;8.85;;
85095;SDS011;75436;53.502;10.030;2024-02-26T04:38:46;18.10;;;8.77;;
85095;SDS011;75436;53.502;10.030;2024-02-26T04:41:12;13.90;;;7.28;;
85095;SDS011;75436;53.502;10.030;2024-02-26T04:43:38;18.38;;;8.45;;
85095;SDS011;75436;53.502;10.030;2024-02-26T04:46:09;17.65;;;8.65;;
85095;SDS011;75436;53.502;10.030;2024-02-26T04:48:35;19.05;;;8.05;;
85095;SDS011;75436;53.502;10.030;2024-02-26T04:51:01;19.73;;;8.77;;
85095;SDS011;75436;53.502;10.030;2024-02-26T04:53:28;18.10;;;8.20;;
85095;SDS011;75436;53.502;10.030;2024-02-26T04:55:53;17.67;;;7.88;;
85095;SDS011;75436;53.502;10.030;2024-02-26T04:58:19;21.55;;;9.38;;
85095;SDS011;75436;53.502;10.030;2024-02-26T05:00:44;17.58;;;8.55;;
85095;SDS011;75436;53.502;10.030;2024-02-26T05:03:09;18.55;;;8.35;;
85095;SDS011;75436;53.502;10.030;2024-02-26T05:05:41;20.10;;;8.68;;
85095;SDS011;75436;53.502;10.030;2024-02-26T05:08:11;17.05;;;8.27;;
85095;SDS011;75436;53.502;10.030;2024-02-26T05:10:39;16.65;;;8.90;;
85095;SDS011;75436;53.502;10.030;2024-02-26T05:13:06;18.83;;;8.80;;
85095;SDS011;75436;53.502;10.030;2024-02-26T05:15:32;17.65;;;8.60;;
85095;SDS011;75436;53.502;10.030;2024-02-26T05:17:57;23.45;;;9.02;;
85095;SDS011;75436;53.502;10.030;2024-02-26T05:20:23;17.48;;;9.02;;
85095;SDS011;75436;53.502;10.030;2024-02-26T05:22:48;18.27;;;8.40;;
85095;SDS011;75436;53.502;10.030;2024-02-26T05:25:15;18.83;;;9.32;;
85095;SDS011;75436;53.502;10.030;2024-02-26T05:27:41;18.02;;;9.55;;
85095;SDS011;75436;53.502;10.030;2024-02-26T05:30:07;16.85;;;8.15;;
85095;SDS011;75436;53.502;10.030;2024-02-26T05:32:33;15.93;;;8.60;;
85095;SDS011;75436;53.502;10.030;2024-02-26T05:34:58;17.92;;;8.55;;
85095;SDS011;75436;53.502;10.030;2024-02-26T05:37:24;20.58;;;8.73;;
85095;SDS011;75436;53.502;10.030;2024-02-26T05:39:49;17.65;;;9.00;;
85095;SDS011;75436;53.502;10.030;2024-02-26T05:42:15;19.77;;;9.43;;
85095;SDS011;75436;53.502;10.030;2024-02-26T05:44:40;17.38;;;8.10;;
85095;SDS011;75436;53.502;10.030;2024-02-26T05:47:06;18.15;;;8.88;;
85095;SDS011;75436;53.502;10.030;2024-02-26T05:49:31;17.27;;;7.78;;
85095;SDS011;75436;53.502;10.030;2024-02-26T05:51:57;18.92;;;8.35;;
85095;SDS011;75436;53.502;10.030;2024-02-26T05:54:23;17.30;;;7.90;;
85095;SDS011;75436;53.502;10.030;2024-02-26T05:56:48;18.45;;;8.30;;
85095;SDS011;75436;53.502;10.030;2024-02-26T05:59:13;22.05;;;9.10;;
85095;SDS011;75436;53.502;10.030;2024-02-26T06:01:40;19.27;;;8.13;;
85095;SDS011;75436;53.502;10.030;2024-02-26T06:04:06;16.23;;;8.55;;
85095;SDS011;75436;53.502;10.030;2024-02-26T06:06:32;16.60;;;8.75;;
85095;SDS011;75436;53.502;10.030;2024-02-26T06:08:57;21.73;;;8.90;;
85095;SDS011;75436;53.502;10.030;2024-02-26T06:11:25;18.02;;;8.27;;
85095;SDS011;75436;53.502;10.030;2024-02-26T06:13:51;15.73;;;7.75;;
85095;SDS011;75436;53.502;10.030;2024-02-26T06:16:17;13.55;;;7.30;;
85095;SDS011;75436;53.502;10.030;2024-02-26T06:18:45;18.00;;;7.93;;
85095;SDS011;75436;53.502;10.030;2024-02-26T06:21:11;17.55;;;8.70;;
85095;SDS011;75436;53.502;10.030;2024-02-26T06:23:40;20.20;;;9.18;;
85095;SDS011;75436;53.502;10.030;2024-02-26T06:26:05;15.48;;;8.10;;
85095;SDS011;75436;53.502;10.030;2024-02-26T06:28:31;14.50;;;8.07;;
85095;SDS011;75436;53.502;10.030;2024-02-26T06:30:59;14.80;;;7.60;;
85095;SDS011;75436;53.502;10.030;2024-02-26T06:33:27;16.33;;;8.57;;
85095;SDS011;75436;53.502;10.030;2024-02-26T06:35:53;21.40;;;9.57;;
85095;SDS011;75436;53.502;10.030;2024-02-26T06:38:18;17.42;;;7.65;;
85095;SDS011;75436;53.502;10.030;2024-02-26T06:40:44;16.05;;;7.72;;
85095;SDS011;75436;53.502;10.030;2024-02-26T06:43:10;16.55;;;7.22;;
85095;SDS011;75436;53.502;10.030;2024-02-26T06:45:36;16.52;;;8.10;;
85095;SDS011;75436;53.502;10.030;2024-02-26T06:48:02;14.43;;;7.25;;
85095;SDS011;75436;53.502;10.030;2024-02-26T06:50:28;15.32;;;8.55;;
85095;SDS011;75436;53.502;10.030;2024-02-26T06:52:53;17.50;;;8.55;;
85095;SDS011;75436;53.502;10.030;2024-02-26T06:55:19;16.75;;;8.55;;
85095;SDS011;75436;53.502;10.030;2024-02-26T06:57:44;17.98;;;8.40;;
85095;SDS011;75436;53.502;10.030;2024-02-26T07:00:10;18.35;;;8.80;;
85095;SDS011;75436;53.502;10.030;2024-02-26T07:02:39;17.55;;;9.20;;
85095;SDS011;75436;53.502;10.030;2024-02-26T07:05:05;16.98;;;8.13;;
85095;SDS011;75436;53.502;10.030;2024-02-26T07:07:31;17.60;;;8.85;;
85095;SDS011;75436;53.502;10.030;2024-02-26T07:09:57;21.95;;;9.55;;
85095;SDS011;75436;53.502;10.030;2024-02-26T07:12:22;18.52;;;8.70;;
85095;SDS011;75436;53.502;10.030;2024-02-26T07:14:49;15.63;;;8.90;;
85095;SDS011;75436;53.502;10.030;2024-02-26T07:17:15;18.45;;;8.73;;
85095;SDS011;75436;53.502;10.030;2024-02-26T07:19:41;20.30;;;10.43;;
85095;SDS011;75436;53.502;10.030;2024-02-26T07:22:07;22.17;;;10.65;;
85095;SDS011;75436;53.502;10.030;2024-02-26T07:24:33;18.60;;;9.65;;
85095;SDS011;75436;53.502;10.030;2024-02-26T07:26:58;21.90;;;10.90;;
85095;SDS011;75436;53.502;10.030;2024-02-26T07:29:24;20.73;;;10.35;;
85095;SDS011;75436;53.502;10.030;2024-02-26T07:31:49;20.30;;;9.68;;
85095;SDS011;75436;53.502;10.030;2024-02-26T07:34:14;20.08;;;9.80;;
85095;SDS011;75436;53.502;10.030;2024-02-26T07:36:40;19.02;;;9.88;;
85095;SDS011;75436;53.502;10.030;2024-02-26T07:39:05;19.92;;;9.95;;
85095;SDS011;75436;53.502;10.030;2024-02-26T07:41:31;18.52;;;8.90;;
85095;SDS011;75436;53.502;10.030;2024-02-26T07:43:56;17.52;;;9.65;;
85095;SDS011;75436;53.502;10.030;2024-02-26T07:46:21;17.08;;;8.52;;
85095;SDS011;75436;53.502;10.030;2024-02-26T07:48:47;14.02;;;8.30;;
85095;SDS011;75436;53.502;10.030;2024-02-26T07:51:15;17.55;;;9.07;;
85095;SDS011;75436;53.502;10.030;2024-02-26T07:53:42;15.75;;;8.70;;
85095;SDS011;75436;53.502;10.030;2024-02-26T07:56:07;14.02;;;8.68;;
85095;SDS011;75436;53.502;10.030;2024-02-26T07:58:34;17.92;;;9.80;;
85095;SDS011;75436;53.502;10.030;2024-02-26T08:00:59;15.43;;;8.70;;
85095;SDS011;75436;53.502;10.030;2024-02-26T08:03:25;19.48;;;9.23;;
85095;SDS011;75436;53.502;10.030;2024-02-26T08:05:51;17.15;;;9.25;;
85095;SDS011;75436;53.502;10.030;2024-02-26T08:08:16;22.60;;;9.07;;
85095;SDS011;75436;53.502;10.030;2024-02-26T08:10:42;26.48;;;10.35;;
85095;SDS011;75436;53.502;10.030;2024-02-26T08:13:08;21.55;;;9.18;;
85095;SDS011;75436;53.502;10.030;2024-02-26T08:15:33;19.58;;;9.27;;
85095;SDS011;75436;53.502;10.030;2024-02-26T08:18:00;38.22;;;10.13;;
85095;SDS011;75436;53.502;10.030;2024-02-26T08:20:33;17.08;;;8.88;;
85095;SDS011;75436;53.502;10.030;2024-02-26T08:22:58;15.75;;;8.57;;
85095;SDS011;75436;53.502;10.030;2024-02-26T08:25:24;17.40;;;8.80;;
85095;SDS011;75436;53.502;10.030;2024-02-26T08:27:50;16.25;;;8.77;;
85095;SDS011;75436;53.502;10.030;2024-02-26T08:30:16;18.10;;;9.13;;
85095;SDS011;75436;53.502;10.030;2024-02-26T08:32:45;15.40;;;8.20;;
85095;SDS011;75436;53.502;10.030;2024-02-26T08:35:12;15.13;;;8.63;;
85095;SDS011;75436;53.502;10.030;2024-02-26T08:37:38;16.23;;;8.82;;
85095;SDS011;75436;53.502;10.030;2024-02-26T08:40:03;17.13;;;8.70;;
85095;SDS011;75436;53.502;10.030;2024-02-26T08:42:30;17.15;;;8.90;;
85095;SDS011;75436;53.502;10.030;2024-02-26T08:44:56;16.58;;;8.43;;
85095;SDS011;75436;53.502;10.030;2024-02-26T08:47:21;16.20;;;8.48;;
85095;SDS011;75436;53.502;10.030;2024-02-26T08:49:46;17.00;;;8.48;;
85095;SDS011;75436;53.502;10.030;2024-02-26T08:52:12;15.32;;;8.63;;
85095;SDS011;75436;53.502;10.030;2024-02-26T08:54:37;14.15;;;7.78;;
85095;SDS011;75436;53.502;10.030;2024-02-26T08:57:03;14.43;;;8.35;;
85095;SDS011;75436;53.502;10.030;2024-02-26T08:59:28;15.68;;;8.25;;
85095;SDS011;75436;53.502;10.030;2024-02-26T09:01:54;13.27;;;7.75;;
85095;SDS011;75436;53.502;10.030;2024-02-26T09:04:19;14.45;;;8.23;;
85095;SDS011;75436;53.502;10.030;2024-02-26T09:06:45;15.90;;;8.35;;
85095;SDS011;75436;53.502;10.030;2024-02-26T09:09:11;15.52;;;9.18;;
85095;SDS011;75436;53.502;10.030;2024-02-26T09:11:36;12.57;;;7.30;;
85095;SDS011;75436;53.502;10.030;2024-02-26T09:14:02;10.73;;;6.90;;
85095;SDS011;75436;53.502;10.030;2024-02-26T09:16:28;12.88;;;7.40;;
85095;SDS011;75436;53.502;10.030;2024-02-26T09:18:56;13.65;;;7.80;;
85095;SDS011;75436;53.502;10.030;2024-02-26T09:21:22;10.95;;;6.45;;
85095;SDS011;75436;53.502;10.030;2024-02-26T09:23:51;14.40;;;7.35;;
85095;SDS011;75436;53.502;10.030;2024-02-26T09:26:17;11.95;;;6.85;;
85095;SDS011;75436;53.502;10.030;2024-02-26T09:28:43;10.32;;;6.55;;
85095;SDS011;75436;53.502;10.030;2024-02-26T09:31:09;11.85;;;6.97;;
85095;SDS011;75436;53.502;10.030;2024-02-26T09:33:35;12.88;;;7.78;;
85095;SDS011;75436;53.502;10.030;2024-02-26T09:36:00;14.85;;;7.57;;
85095;SDS011;75436;53.502;10.030;2024-02-26T09:38:26;12.45;;;7.18;;
85095;SDS011;75436;53.502;10.030;2024-02-26T09:40:52;11.05;;;6.93;;
85095;SDS011;75436;53.502;10.030;2024-02-26T09:43:19;11.43;;;6.90;;
85095;SDS011;75436;53.502;10.030;2024-02-26T09:45:49;13.32;;;6.53;;
85095;SDS011;75436;53.502;10.030;2024-02-26T09:48:17;11.45;;;6.10;;
85095;SDS011;75436;53.502;10.030;2024-02-26T09:50:43;10.27;;;5.97;;
85095;SDS011;75436;53.502;10.030;2024-02-26T09:53:09;11.18;;;6.57;;
85095;SDS011;75436;53.502;10.030;2024-02-26T09:55:37;11.50;;;6.13;;
85095;SDS011;75436;53.502;10.030;2024-02-26T09:58:03;11.85;;;6.90;;
85095;SDS011;75436;53.502;10.030;2024-02-26T10:00:31;10.77;;;6.28;;
85095;SDS011;75436;53.502;10.030;2024-02-26T10:03:06;11.15;;;6.40;;
85095;SDS011;75436;53.502;10.030;2024-02-26T10:05:39;11.25;;;6.95;;
85095;SDS011;75436;53.502;10.030;2024-02-26T10:08:06;11.45;;;6.90;;
85095;SDS011;75436;53.502;10.030;2024-02-26T10:10:35;10.98;;;6.78;;
85095;SDS011;75436;53.502;10.030;2024-02-26T10:13:02;12.73;;;6.40;;
85095;SDS011;75436;53.502;10.030;2024-02-26T10:15:34;10.80;;;6.50;;
85095;SDS011;75436;53.502;10.030;2024-02-26T10:17:59;10.80;;;6.13;;
85095;SDS011;75436;53.502;10.030;2024-02-26T10:20:24;10.90;;;6.60;;
85095;SDS011;75436;53.502;10.030;2024-02-26T10:22:51;14.65;;;7.47;;
85095;SDS011;75436;53.502;10.030;2024-02-26T10:25:17;10.38;;;5.97;;
85095;SDS011;75436;53.502;10.030;2024-02-26T10:27:43;12.10;;;6.38;;
85095;SDS011;75436;53.502;10.030;2024-02-26T10:30:21;11.95;;;6.85;;
85095;SDS011;75436;53.502;10.030;2024-02-26T10:32:48;12.30;;;6.57;;
85095;SDS011;75436;53.502;10.030;2024-02-26T10:35:15;10.90;;;6.30;;
85095;SDS011;75436;53.502;10.030;2024-02-26T10:37:42;13.90;;;7.15;;
85095;SDS011;75436;53.502;10.030;2024-02-26T10:40:10;15.38;;;7.55;;
85095;SDS011;75436;53.502;10.030;2024-02-26T10:42:39;12.68;;;7.32;;
85095;SDS011;75436;53.502;10.030;2024-02-26T10:45:06;12.27;;;6.18;;
85095;SDS011;75436;53.502;10.030;2024-02-26T10:47:34;14.35;;;7.25;;
85095;SDS011;75436;53.502;10.030;2024-02-26T10:50:01;14.75;;;7.15;;
85095;SDS011;75436;53.502;10.030;2024-02-26T10:52:32;16.13;;;7.70;;
85095;SDS011;75436;53.502;10.030;2024-02-26T10:55:00;12.68;;;7.15;;
85095;SDS011;75436;53.502;10.030;2024-02-26T10:57:34;10.50;;;6.88;;
85095;SDS011;75436;53.502;10.030;2024-02-26T11:00:05;13.30;;;6.82;;
85095;SDS011;75436;53.502;10.030;2024-02-26T11:02:34;13.93;;;7.00;;
85095;SDS011;75436;53.502;10.030;2024-02-26T11:05:03;12.70;;;6.82;;
85095;SDS011;75436;53.502;10.030;2024-02-26T11:07:29;12.10;;;7.05;;
85095;SDS011;75436;53.502;10.030;2024-02-26T11:09:57;16.50;;;6.85;;
85095;SDS011;75436;53.502;10.030;2024-02-26T11:12:29;14.85;;;7.45;;
85095;SDS011;75436;53.502;10.030;2024-02-26T11:14:57;13.52;;;6.93;;
85095;SDS011;75436;53.502;10.030;2024-02-26T11:17:26;13.55;;;7.00;;
85095;SDS011;75436;53.502;10.030;2024-02-26T11:19:57;12.43;;;7.30;;
85095;SDS011;75436;53.502;10.030;2024-02-26T11:22:24;13.68;;;7.22;;
85095;SDS011;75436;53.502;10.030;2024-02-26T11:24:54;15.40;;;7.40;;
85095;SDS011;75436;53.502;10.030;2024-02-26T11:27:24;13.68;;;7.43;;
85095;SDS011;75436;53.502;10.030;2024-02-26T11:29:55;14.07;;;7.78;;
85095;SDS011;75436;53.502;10.030;2024-02-26T11:32:25;17.83;;;8.20;;
85095;SDS011;75436;53.502;10.030;2024-02-26T11:34:53;16.00;;;8.20;;
85095;SDS011;75436;53.502;10.030;2024-02-26T11:37:19;18.92;;;8.48;;
85095;SDS011;75436;53.502;10.030;2024-02-26T11:39:45;14.82;;;8.35;;
85095;SDS011;75436;53.502;10.030;2024-02-26T11:42:14;17.00;;;8.48;;
85095;SDS011;75436;53.502;10.030;2024-02-26T11:44:41;18.00;;;8.57;;
85095;SDS011;75436;53.502;10.030;2024-02-26T11:49:43;15.82;;;8.30;;
85095;SDS011;75436;53.502;10.030;2024-02-26T11:52:09;18.05;;;8.38;;
85095;SDS011;75436;53.502;10.030;2024-02-26T11:54:48;15.65;;;8.10;;
85095;SDS011;75436;53.502;10.030;2024-02-26T11:59:56;21.60;;;8.77;;
85095;SDS011;75436;53.502;10.030;2024-02-26T12:02:47;21.52;;;9.65;;
85095;SDS011;75436;53.502;10.030;2024-02-26T12:05:22;17.80;;;8.80;;
85095;SDS011;75436;53.502;10.030;2024-02-26T12:07:49;21.10;;;9.18;;
85095;SDS011;75436;53.502;10.030;2024-02-26T12:12:54;18.77;;;9.65;;
85095;SDS011;75436;53.502;10.030;2024-02-26T12:15:37;18.55;;;10.15;;
85095;SDS011;75436;53.502;10.030;2024-02-26T12:18:05;16.17;;;8.27;;
85095;SDS011;75436;53.502;10.030;2024-02-26T12:20:38;15.15;;;8.35;;
85095;SDS011;75436;53.502;10.030;2024-02-26T12:23:04;15.55;;;8.43;;
85095;SDS011;75436;53.502;10.030;2024-02-26T12:25:30;18.88;;;9.00;;
85095;SDS011;75436;53.502;10.030;2024-02-26T12:27:56;16.75;;;8.20;;
85095;SDS011;75436;53.502;10.030;2024-02-26T12:30:22;18.73;;;8.25;;
85095;SDS011;75436;53.502;10.030;2024-02-26T12:32:50;17.60;;;8.48;;
85095;SDS011;75436;53.502;10.030;2024-02-26T12:35:17;13.35;;;8.10;;
85095;SDS011;75436;53.502;10.030;2024-02-26T12:37:43;19.40;;;8.38;;
85095;SDS011;75436;53.502;10.030;2024-02-26T12:40:09;14.95;;;8.30;;
85095;SDS011;75436;53.502;10.030;2024-02-26T12:42:36;14.68;;;7.47;;
85095;SDS011;75436;53.502;10.030;2024-02-26T12:45:07;13.20;;;7.28;;
85095;SDS011;75436;53.502;10.030;2024-02-26T12:47:35;11.77;;;6.95;;
85095;SDS011;75436;53.502;10.030;2024-02-26T12:50:08;14.10;;;6.57;;
85095;SDS011;75436;53.502;10.030;2024-02-26T12:52:44;13.32;;;7.57;;
85095;SDS011;75436;53.502;10.030;2024-02-26T12:55:16;13.32;;;7.63;;
85095;SDS011;75436;53.502;10.030;2024-02-26T12:57:45;15.02;;;7.25;;
85095;SDS011;75436;53.502;10.030;2024-02-26T13:00:15;13.63;;;7.78;;
85095;SDS011;75436;53.502;10.030;2024-02-26T13:02:47;14.05;;;7.50;;
85095;SDS011;75436;53.502;10.030;2024-02-26T13:05:14;12.82;;;6.88;;
85095;SDS011;75436;53.502;10.030;2024-02-26T13:07:41;16.65;;;7.20;;
85095;SDS011;75436;53.502;10.030;2024-02-26T13:10:08;13.48;;;6.85;;
85095;SDS011;75436;53.502;10.030;2024-02-26T13:12:36;13.45;;;7.93;;
85095;SDS011;75436;53.502;10.030;2024-02-26T13:15:03;14.70;;;7.72;;
85095;SDS011;75436;53.502;10.030;2024-02-26T13:17:32;16.80;;;9.07;;
85095;SDS011;75436;53.502;10.030;2024-02-26T13:19:57;15.93;;;8.95;;
85095;SDS011;75436;53.502;10.030;2024-02-26T13:22:23;15.35;;;7.53;;
85095;SDS011;75436;53.502;10.030;2024-02-26T13:24:55;15.75;;;8.20;;
85095;SDS011;75436;53.502;10.030;2024-02-26T13:27:25;17.05;;;8.00;;
85095;SDS011;75436;53.502;10.030;2024-02-26T13:30:10;12.75;;;7.32;;
85095;SDS011;75436;53.502;10.030;2024-02-26T13:32:38;14.98;;;7.43;;
85095;SDS011;75436;53.502;10.030;2024-02-26T13:35:08;12.48;;;6.45;;
85095;SDS011;75436;53.502;10.030;2024-02-26T13:37:36;13.57;;;7.22;;
85095;SDS011;75436;53.502;10.030;2024-02-26T13:42:34;13.93;;;6.93;;
85095;SDS011;75436;53.502;10.030;2024-02-26T13:45:00;12.10;;;6.38;;
85095;SDS011;75436;53.502;10.030;2024-02-26T13:47:27;13.90;;;6.72;;
85095;SDS011;75436;53.502;10.030;2024-02-26T13:49:52;13.18;;;7.15;;
85095;SDS011;75436;53.502;10.030;2024-02-26T13:52:18;15.18;;;7.93;;
85095;SDS011;75436;53.502;10.030;2024-02-26T13:54:45;13.48;;;6.65;;
85095;SDS011;75436;53.502;10.030;2024-02-26T13:57:10;15.43;;;7.32;;
85095;SDS011;75436;53.502;10.030;2024-02-26T13:59:36;12.35;;;7.15;;
85095;SDS011;75436;53.502;10.030;2024-02-26T14:02:02;10.98;;;6.40;;
85095;SDS011;75436;53.502;10.030;2024-02-26T14:04:27;13.82;;;6.93;;
85095;SDS011;75436;53.502;10.030;2024-02-26T14:06:53;14.70;;;7.53;;
85095;SDS011;75436;53.502;10.030;2024-02-26T14:09:18;14.85;;;7.45;;
85095;SDS011;75436;53.502;10.030;2024-02-26T14:11:46;15.35;;;7.60;;
85095;SDS011;75436;53.502;10.030;2024-02-26T14:14:16;11.63;;;6.30;;
85095;SDS011;75436;53.502;10.030;2024-02-26T14:16:41;16.50;;;7.97;;
85095;SDS011;75436;53.502;10.030;2024-02-26T14:19:07;15.07;;;7.60;;
85095;SDS011;75436;53.502;10.030;2024-02-26T14:40:56;12.95;;;6.43;;
85095;SDS011;75436;53.502;10.030;2024-02-26T14:43:22;13.48;;;7.68;;
85095;SDS011;75436;53.502;10.030;2024-02-26T14:49:28;16.48;;;7.88;;
85095;SDS011;75436;53.502;10.030;2024-02-26T14:51:55;15.30;;;7.95;;